20:02
Airports
Links
Donate
Help keep this website running!
PayPal
Bitcoin
METAR
KLAX 121953Z 00000KT 10SM FEW080 FEW120 SCT160 SCT200 28/M17 A3012 RMK AO2 SLP198 T02781167
Current Weather Conditions at KLAX
VFR 19:53:00 12-12-17
Automated station
Altimeter:30.12 hg
Temp:27.8°c 81°f
Dew point:-16.7°cf
Wind:0 knots, 0 mph, 0 m/s,
Variable direction
Visibility:10.0 statute miles
20000(SCT) Scattered
16000(SCT) Scattered
12000(FEW) A few
8000(FEW) A few
Past METAR reports
VFR 18:53:00 12-12-17
Automated station
Altimeter:30.16 hg
Temp:25.6°c 77°f
Dew point:-17.2°cf
Wind:0 knots, 0 mph, 0 m/s,
Variable direction
Visibility:10.0 statute miles
19000(SCT) Scattered
16000(SCT) Scattered
11000(FEW) A few
8000(FEW) A few
KLAX 121853Z 00000KT 10SM FEW080 FEW110 SCT160 SCT190 26/M17 A3016 RMK AO2 SLP212 T02561172
VFR 17:53:00 12-12-17
Automated station
Altimeter:30.19 hg
Temp:24.4°c 75°f
Dew point:-16.1°cf
Wind:6 knots, 6.9 mph, 3 m/s, from 360°
Visibility:10.0 statute miles
15000(FEW) A few
10000(FEW) A few
KLAX 121753Z 36006KT 10SM FEW100 FEW150 24/M16 A3019 RMK AO2 SLP221 T02441161 10244 20128 50002
VFR 16:53:00 12-12-17
Automated station
Altimeter:30.20 hg
Temp:21.1°c 70°f
Dew point:-12.8°c 10°f
Wind:3 knots, 3.5 mph, 2 m/s,
Variable direction
Visibility:10.0 statute miles
16000(SCT) Scattered
14000(FEW) A few
10000(FEW) A few
KLAX 121653Z VRB03KT 10SM FEW100 FEW140 SCT160 21/M13 A3020 RMK AO2 SLP224 T02111128
VFR 15:53:00 12-12-17
Automated station
Altimeter:30.19 hg
Temp:16.7°c 61°f
Dew point:-13.3°cf
Wind:4 knots, 4.6 mph, 2 m/s,
Variable direction
Visibility:10.0 statute miles
16000(SCT) Scattered
14000(FEW) A few
10000(FEW) A few
KLAX 121553Z VRB04KT 10SM FEW100 FEW140 SCT160 17/M13 A3019 RMK AO2 SLP223 T01671133
VFR 14:53:00 12-12-17
Automated station
Altimeter:30.19 hg
Temp:14.4°c 57°f
Dew point:-13.9°cf
Wind:0 knots, 0 mph, 0 m/s,
Variable direction
Visibility:10.0 statute miles
16000(SCT) Scattered
14000(FEW) A few
10000(FEW) A few
KLAX 121453Z 00000KT 10SM FEW100 FEW140 SCT160 14/M14 A3019 RMK AO2 SLP221 T01441139 53001
TAF
KLAX 121727Z 1218/1324 VRB03KT P6SM SCT160 FM122100 27008KT P6SM SKC FM130400 VRB03KT P6SM SKC FM132000 27008KT P6SM SKC
Forecast at KLAX
18:00 12-12-17 to 21:00 12-12-17
Wind:3 Knots from 360°
Visibility:6.21 statute miles
16000SCT Scattered
FM 21:00 12-12-17 to 04:00 13-12-17
Wind:8 Knots from 270°
Visibility:6.21 statute miles
SKC Clear
FM 04:00 13-12-17 to 20:00 13-12-17
Wind:3 Knots from 360°
Visibility:6.21 statute miles
SKC Clear
FM 20:00 13-12-17 to 00:00 14-12-17
Wind:8 Knots from 270°
Visibility:6.21 statute miles
SKC Clear